createdAt,value
2019-02-12T00:04:14.875Z,7.90
2019-02-12T00:09:20.167Z,8.10
2019-02-12T00:14:25.476Z,8.60
2019-02-12T00:19:31.605Z,8.70
2019-02-12T00:24:36.867Z,9.00
2019-02-12T00:29:42.182Z,9.20
2019-02-12T00:34:48.054Z,8.90
2019-02-12T00:39:54.470Z,8.80
2019-02-12T00:45:00.775Z,9.00
2019-02-12T00:50:10.915Z,9.20
2019-02-12T00:55:16.189Z,9.80
2019-02-12T01:00:22.808Z,9.80
2019-02-12T01:05:28.028Z,9.70
2019-02-12T01:10:33.331Z,10.10
2019-02-12T01:15:38.590Z,10.20
2019-02-12T01:20:43.848Z,10.20
2019-02-12T01:25:49.100Z,10.40
2019-02-12T01:30:54.365Z,10.50
2019-02-12T01:35:59.701Z,10.60
2019-02-12T01:41:06.369Z,10.20
2019-02-12T01:46:11.628Z,10.10
2019-02-12T01:51:16.888Z,10.10
2019-02-12T01:56:22.131Z,9.70
2019-02-12T02:01:27.869Z,9.90
2019-02-12T02:06:33.110Z,9.90
2019-02-12T02:11:38.372Z,9.90
2019-02-12T02:16:43.618Z,9.90
2019-02-12T02:21:48.929Z,9.60
2019-02-12T02:26:54.164Z,9.70
2019-02-12T02:31:59.658Z,9.80
2019-02-12T02:37:04.983Z,10.10
2019-02-12T02:42:10.233Z,10.60
2019-02-12T02:47:15.485Z,10.70
2019-02-12T02:52:20.769Z,10.10
2019-02-12T02:57:25.985Z,10.00
2019-02-12T03:02:31.280Z,9.90
2019-02-12T03:07:36.523Z,9.50
2019-02-12T03:12:41.763Z,9.40
2019-02-12T03:17:47.078Z,9.30
2019-02-12T03:22:52.369Z,9.80
2019-02-12T03:27:57.763Z,9.30
2019-02-12T03:33:03.019Z,9.10
2019-02-12T03:38:08.587Z,9.10
2019-02-12T03:43:14.278Z,9.30
2019-02-12T03:48:21.235Z,10.00
2019-02-12T03:53:26.421Z,10.00
2019-02-12T03:58:31.667Z,9.60
2019-02-12T04:03:36.979Z,9.80
2019-02-12T04:08:42.234Z,9.40
2019-02-12T04:13:47.483Z,9.70
2019-02-12T04:18:52.717Z,9.70
2019-02-12T04:23:58.054Z,9.70
2019-02-12T04:29:03.303Z,9.90
2019-02-12T04:34:08.568Z,9.30
2019-02-12T04:39:13.833Z,9.60
2019-02-12T04:44:19.212Z,9.80
2019-02-12T04:49:24.651Z,9.60
2019-02-12T04:54:29.892Z,9.20
2019-02-12T04:59:35.152Z,9.60
2019-02-12T05:04:40.391Z,9.40
2019-02-12T05:09:46.777Z,9.70
2019-02-12T05:14:52.043Z,9.90
2019-02-12T05:19:57.316Z,9.40
2019-02-12T05:25:02.578Z,9.00
2019-02-12T05:30:13.185Z,9.00
2019-02-12T05:35:18.441Z,8.70
2019-02-12T05:40:23.703Z,9.50
2019-02-12T05:45:28.938Z,9.40
2019-02-12T05:50:34.179Z,9.10
2019-02-12T05:55:39.437Z,9.50
2019-02-12T06:00:44.694Z,9.30
2019-02-12T06:05:49.944Z,9.40
2019-02-12T06:10:55.182Z,8.80
2019-02-12T06:16:00.539Z,9.00
2019-02-12T06:21:05.796Z,9.30
2019-02-12T06:26:11.124Z,9.20
2019-02-12T06:31:16.535Z,8.70
2019-02-12T06:36:21.834Z,8.90
2019-02-12T06:41:27.097Z,8.90
2019-02-12T06:46:32.346Z,9.00
2019-02-12T06:51:37.589Z,9.10
2019-02-12T06:56:42.835Z,9.20
2019-02-12T07:01:48.122Z,9.10
2019-02-12T07:07:05.759Z,9.20
2019-02-12T07:12:26.327Z,9.40
2019-02-12T07:17:40.626Z,9.00
2019-02-12T07:22:51.802Z,9.50
2019-02-12T07:28:22.428Z,9.00
2019-02-12T07:33:50.574Z,9.50
2019-02-12T07:39:29.290Z,9.70
2019-02-12T07:44:59.430Z,9.90
2019-02-12T07:50:23.075Z,10.10
2019-02-12T07:55:31.587Z,10.20
2019-02-12T08:00:58.030Z,9.90
2019-02-12T08:06:12.574Z,9.90
2019-02-12T08:11:39.127Z,9.80
2019-02-12T08:17:07.222Z,9.90
2019-02-12T08:22:27.868Z,9.90
2019-02-12T08:27:52.968Z,9.40
2019-02-12T08:33:07.561Z,9.50
2019-02-12T08:38:16.056Z,9.70
2019-02-12T08:43:42.300Z,10.10
2019-02-12T08:48:52.437Z,9.80
2019-02-12T08:54:09.796Z,9.60
2019-02-12T08:59:42.559Z,9.20
2019-02-12T09:04:53.665Z,9.10
2019-02-12T09:10:27.812Z,9.50
2019-02-12T09:15:51.369Z,9.70
2019-02-12T09:21:11.159Z,10.10
2019-02-12T09:26:43.612Z,9.90
2019-02-12T09:32:17.663Z,10.50
2019-02-12T09:37:44.127Z,9.90
2019-02-12T09:42:57.068Z,10.30
2019-02-12T09:48:08.340Z,10.00
2019-02-12T09:53:34.331Z,9.80
2019-02-12T09:58:48.338Z,9.80
2019-02-12T10:04:11.646Z,10.10
2019-02-12T10:09:41.423Z,10.50
2019-02-12T10:14:55.557Z,11.20
2019-02-12T10:20:07.018Z,10.60
2019-02-12T10:25:18.601Z,10.80
2019-02-12T10:30:35.781Z,10.80
2019-02-12T10:35:41.140Z,10.90
2019-02-12T10:40:46.466Z,11.30
2019-02-12T10:45:51.662Z,11.40
2019-02-12T10:50:57.974Z,11.40
2019-02-12T10:56:04.637Z,11.50
2019-02-12T11:01:10.010Z,11.70
2019-02-12T11:06:16.340Z,11.90
2019-02-12T11:11:22.585Z,11.80
2019-02-12T11:16:27.867Z,12.10
2019-02-12T13:15:34.898Z,2.80
2019-02-12T13:20:40.368Z,11.60
2019-02-12T13:25:45.594Z,11.60
2019-02-12T13:30:50.881Z,11.70
2019-02-12T13:35:56.128Z,11.80
2019-02-12T13:41:02.442Z,11.80
2019-02-12T13:46:07.712Z,12.10
2019-02-12T13:51:12.962Z,11.80
2019-02-12T13:56:18.236Z,11.70
2019-02-12T14:01:23.520Z,12.00
2019-02-12T14:06:28.892Z,12.00
2019-02-12T14:11:34.148Z,12.00
2019-02-12T15:27:55.257Z,3.10
2019-02-12T15:33:00.531Z,11.60
2019-02-12T15:38:05.786Z,11.60
2019-02-12T15:43:11.152Z,11.60
2019-02-12T15:48:16.393Z,11.60
2019-02-12T15:53:21.583Z,11.50
2019-02-12T15:58:28.321Z,11.50
2019-02-12T16:03:34.483Z,11.40
2019-02-12T16:08:40.670Z,11.30
2019-02-12T16:13:45.949Z,11.10
2019-02-12T16:18:51.205Z,11.40
2019-02-12T16:23:56.460Z,11.30
2019-02-12T16:29:01.769Z,11.40
2019-02-12T16:34:07.045Z,11.20
2019-02-12T16:39:12.416Z,11.20
2019-02-12T16:44:17.704Z,10.60
2019-02-12T16:49:23.236Z,10.50
2019-02-12T16:54:28.702Z,10.30
2019-02-12T16:59:33.984Z,10.30
2019-02-12T17:04:39.311Z,10.20
2019-02-12T17:09:52.164Z,10.40
2019-02-12T17:14:51.502Z,10.70
2019-02-12T17:19:56.749Z,10.70
2019-02-12T17:25:02.050Z,10.50
2019-02-12T17:30:12.676Z,10.70
2019-02-12T17:35:18.026Z,10.70
2019-02-12T17:40:23.494Z,10.30
2019-02-12T17:45:28.800Z,10.10
2019-02-12T17:50:34.547Z,10.60
2019-02-12T17:55:40.161Z,10.50
2019-02-12T18:00:45.886Z,10.70
2019-02-12T18:05:51.171Z,10.60
2019-02-12T18:10:56.460Z,10.70
2019-02-12T18:16:01.978Z,10.50
2019-02-12T18:21:07.270Z,10.30
2019-02-12T18:26:12.544Z,10.30
2019-02-12T18:31:19.060Z,9.90
2019-02-12T18:36:24.423Z,10.00
2019-02-12T18:41:29.682Z,10.10
2019-02-12T18:46:35.403Z,9.80
2019-02-12T18:51:40.648Z,9.60
2019-02-12T18:56:45.977Z,9.60
2019-02-12T19:01:51.220Z,9.80
2019-02-12T19:06:56.486Z,10.00
2019-02-12T19:12:01.699Z,9.90
2019-02-12T19:17:06.971Z,9.40
2019-02-12T19:22:12.235Z,9.60
2019-02-12T19:27:17.503Z,9.70
2019-02-12T19:32:22.757Z,9.50
2019-02-12T19:37:28.134Z,9.40
2019-02-12T19:42:33.555Z,9.30
2019-02-12T19:47:38.822Z,9.20
2019-02-12T19:52:44.013Z,9.40
2019-02-12T19:57:49.265Z,9.50
2019-02-12T20:02:54.522Z,9.10
2019-02-12T20:07:59.794Z,8.70
2019-02-12T20:13:05.063Z,9.20
2019-02-12T20:18:10.337Z,9.00
2019-02-12T20:23:15.602Z,9.40
2019-02-12T20:28:20.851Z,8.70
2019-02-12T20:33:26.246Z,8.50
2019-02-12T20:38:31.514Z,8.00
2019-02-12T20:43:36.770Z,8.00
2019-02-12T20:48:42.007Z,7.50
2019-02-12T20:53:47.281Z,7.50
2019-02-12T20:58:52.532Z,8.00
2019-02-12T21:03:57.803Z,8.50
2019-02-12T21:09:03.130Z,8.20
2019-02-12T21:14:09.599Z,8.20
2019-02-12T21:19:15.976Z,8.40
2019-02-12T21:24:21.242Z,8.30
2019-02-12T21:29:26.581Z,7.90
2019-02-12T21:34:34.534Z,7.80
2019-02-12T21:39:39.844Z,8.20
2019-02-12T21:44:45.152Z,7.90
2019-02-12T21:49:50.412Z,7.60
2019-02-12T21:54:55.651Z,7.00
2019-02-12T22:00:00.932Z,6.80
2019-02-12T22:05:08.943Z,7.00
2019-02-12T22:10:25.992Z,6.60
2019-02-12T22:15:31.551Z,7.60
2019-02-12T22:20:37.033Z,7.80
2019-02-12T22:25:42.298Z,7.60
2019-02-12T22:30:47.557Z,7.70
2019-02-12T22:35:54.695Z,7.90
2019-02-12T22:41:01.695Z,7.50
2019-02-12T22:46:06.951Z,7.30
2019-02-12T22:51:12.205Z,7.20
2019-02-12T22:56:17.452Z,7.60
2019-02-12T23:01:24.332Z,7.70
2019-02-12T23:06:29.666Z,7.80
2019-02-12T23:11:34.914Z,8.10
2019-02-12T23:16:40.170Z,8.20
2019-02-12T23:21:45.446Z,7.90
2019-02-12T23:26:50.734Z,7.40
2019-02-12T23:31:56.067Z,7.40
2019-02-12T23:37:02.409Z,7.00
2019-02-12T23:42:07.667Z,6.80
2019-02-12T23:47:12.918Z,6.30
2019-02-12T23:52:18.186Z,6.40
2019-02-12T23:57:23.482Z,6.60
